Time;durP1;ratioP1;P1;durP2;ratioP2;P2;SDS_P1;SDS_P2;PMS_P1;PMS_P2;Temp;Humidity;BMP_temperature;BMP_pressure;BME280_temperature;BME280_humidity;BME280_pressure;Samples;Min_cycle;Max_cycle;Signal;HPM_P1;HPM_P2
2022/09/23 00:02:06;;;;;;;1.10;0.70;;;;;;;;;;21064657;28;20274;-74
2022/09/23 00:12:09;;;;;;;1.33;0.80;;;;;;;;;;21062043;28;20208;-74
2022/09/23 00:22:12;;;;;;;0.60;0.60;;;;;;;;;;21063587;28;20212;-74
2022/09/23 00:32:14;;;;;;;0.83;0.70;;;;;;;;;;21059195;28;20273;-74
2022/09/23 00:42:19;;;;;;;1.63;0.93;;;;;;;;;;21068462;28;20220;-74
2022/09/23 00:52:23;;;;;;;0.60;0.60;;;12.50;99.90;;;;;;21067986;28;20254;-74
2022/09/23 01:02:25;;;;;;;0.53;0.50;;;12.40;99.90;;;;;;21023669;28;20222;-74
2022/09/23 01:12:35;;;;;;;1.63;0.70;;;12.30;99.90;;;;;;21067763;28;20262;-74
2022/09/23 01:23:08;;;;;;;0.83;0.50;;;12.30;99.90;;;;;;21049603;28;20249;-74
2022/09/23 01:33:13;;;;;;;2.90;0.63;;;;;;;;;;21066306;28;20212;-74
2022/09/23 01:43:32;;;;;;;1.27;0.80;;;12.00;99.90;;;;;;21065672;28;20246;-74
2022/09/23 01:53:38;;;;;;;1.57;0.80;;;;;;;;;;21065277;28;20253;-74
2022/09/23 02:04:00;;;;;;;1.10;0.80;;;12.00;99.90;;;;;;21065512;28;20270;-74
2022/09/23 02:14:02;;;;;;;1.13;0.83;;;;;;;;;;21079554;28;20261;-74
2022/09/23 02:24:38;;;;;;;1.00;0.83;;;11.70;99.90;;;;;;21080177;28;20270;-74
2022/09/23 02:34:40;;;;;;;1.10;0.90;;;;;;;;;;21065250;28;20284;-74
2022/09/23 02:44:42;;;;;;;1.03;0.60;;;;;;;;;;21077938;28;20741;-74
2022/09/23 02:54:44;;;;;;;0.87;0.70;;;;;;;;;;21073652;28;20221;-74
2022/09/23 03:05:18;;;;;;;1.63;0.87;;;;;;;;;;21059717;28;20679;-74
2022/09/23 03:15:41;;;;;;;1.60;1.00;;;11.50;99.90;;;;;;20982355;28;20575;-74
2022/09/23 03:25:44;;;;;;;1.70;0.90;;;;;;;;;;21073089;28;20559;-74
2022/09/23 03:46:14;;;;;;;1.47;0.70;;;11.30;99.90;;;;;;21025572;28;20209;-71
2022/09/23 03:56:16;;;;;;;1.20;0.80;;;11.20;99.90;;;;;;20975922;28;20277;-71
2022/09/23 04:06:18;;;;;;;2.13;1.17;;;;;;;;;;21011155;28;20221;-73
2022/09/23 04:16:19;;;;;;;3.13;0.70;;;;;;;;;;21014969;28;20224;-71
2022/09/23 04:26:21;;;;;;;2.07;0.70;;;;;;;;;;21039201;28;20217;-70
2022/09/23 04:36:23;;;;;;;1.63;0.90;;;;;;;;;;21021682;28;20281;-71
2022/09/23 04:46:25;;;;;;;4.53;1.20;;;;;;;;;;21013016;28;20212;-72
2022/09/23 04:56:31;;;;;;;1.27;0.70;;;11.10;99.90;;;;;;21020398;28;20691;-72
2022/09/23 05:06:34;;;;;;;1.20;0.80;;;10.90;99.90;;;;;;21020527;28;20200;-72
2022/09/23 05:16:36;;;;;;;1.07;0.60;;;;;;;;;;21036872;28;20212;-72
2022/09/23 05:26:39;;;;;;;5.27;1.60;;;;;;;;;;21032363;28;20225;-72
2022/09/23 05:36:41;;;;;;;2.27;1.20;;;;;;;;;;21012799;28;20216;-71
2022/09/23 05:46:43;;;;;;;3.93;1.23;;;;;;;;;;21030198;28;20204;-72
2022/09/23 05:56:45;;;;;;;2.00;1.13;;;;;;;;;;21044445;28;20278;-72
2022/09/23 06:06:47;;;;;;;1.30;0.93;;;;;;;;;;21034126;28;20259;-72
2022/09/23 06:16:49;;;;;;;2.20;0.90;;;;;;;;;;21032099;28;20224;-71
2022/09/23 06:26:51;;;;;;;0.90;0.70;;;;;;;;;;21021243;28;20289;-72
2022/09/23 06:36:54;;;;;;;4.10;0.83;;;;;;;;;;21015067;28;20692;-71
2022/09/23 06:46:56;;;;;;;1.20;0.80;;;;;;;;;;21032215;28;20220;-70
2022/09/23 06:56:58;;;;;;;1.00;0.77;;;;;;;;;;21038912;28;20293;-72
2022/09/23 07:07:00;;;;;;;1.67;1.27;;;;;;;;;;21020234;28;20212;-72
2022/09/23 07:17:02;;;;;;;1.43;0.70;;;;;;;;;;21025618;28;20627;-71
2022/09/23 07:27:04;;;;;;;1.13;1.00;;;;;;;;;;21003670;28;20220;-71
2022/09/23 07:37:06;;;;;;;1.63;1.30;;;;;;;;;;21020309;28;20216;-71
2022/09/23 07:47:08;;;;;;;2.20;1.00;;;;;;;;;;21019161;28;20228;-71
2022/09/23 07:57:10;;;;;;;1.73;1.00;;;;;;;;;;21039407;28;20225;-72
2022/09/23 08:07:13;;;;;;;2.60;1.40;;;;;;;;;;21038828;28;20209;-71
2022/09/23 08:17:15;;;;;;;3.47;1.13;;;;;;;;;;21004584;28;20242;-71
2022/09/23 08:27:16;;;;;;;1.80;1.27;;;;;;;;;;21020850;28;20209;-72
2022/09/23 08:37:18;;;;;;;1.40;1.00;;;;;;;;;;21019859;28;20719;-72
2022/09/23 08:47:39;;;;;;;1.67;0.93;;;;;;;;;;21036281;28;20270;-72
2022/09/23 08:58:02;;;;;;;1.43;0.63;;;;;;;;;;21019030;28;20719;-72
2022/09/23 09:08:05;;;;;;;1.20;0.80;;;;;;;;;;20987472;28;20269;-72
2022/09/23 09:18:18;;;;;;;2.23;0.80;;;13.60;99.90;;;;;;21010147;28;20228;-72
2022/09/23 09:28:29;;;;;;;1.30;0.77;;;13.80;99.90;;;;;;21014876;28;20216;-72
2022/09/23 09:38:31;;;;;;;1.00;0.77;;;;;;;;;;21017542;28;20215;-72
2022/09/23 09:48:38;;;;;;;2.40;0.93;;;;;;;;;;21032912;28;20277;-73
2022/09/23 09:58:46;;;;;;;1.63;1.07;;;14.60;99.90;;;;;;21024335;28;20217;-72
2022/09/23 10:09:09;;;;;;;1.13;0.80;;;14.90;99.90;;;;;;20995289;28;20589;-72
2022/09/23 10:19:24;;;;;;;1.40;1.07;;;;;;;;;;21019902;28;20220;-72
2022/09/23 10:29:38;;;;;;;1.23;0.90;;;;;;;;;;21020106;28;20262;-71
2022/09/23 10:50:16;;;;;;;1.20;0.90;;;15.90;99.90;;;;;;20991311;28;20209;-71
2022/09/23 11:00:35;;;;;;;0.97;0.80;;;;;;;;;;20957643;28;20346;-73
2022/09/23 11:11:03;;;;;;;1.43;0.90;;;16.20;99.90;;;;;;20961693;28;20604;-72
2022/09/23 11:21:30;;;;;;;1.33;0.90;;;16.40;99.90;;;;;;20961069;28;20231;-72
2022/09/23 11:31:37;;;;;;;1.50;0.90;;;;;;;;;;20968108;28;20212;-72
2022/09/23 11:41:39;;;;;;;1.00;0.80;;;16.70;99.90;;;;;;21024533;28;20270;-71
2022/09/23 11:52:02;;;;;;;1.57;1.00;;;;;;;;;;21007070;22;20224;-76
2022/09/23 12:02:13;;;;;;;0.90;0.70;;;;;;;;;;21049433;28;20246;-77
2022/09/23 12:12:34;;;;;;;2.63;0.93;;;;;;;;;;21020550;28;20209;-76
2022/09/23 12:23:07;;;;;;;1.27;0.80;;;17.40;99.90;;;;;;21028077;28;20217;-76
2022/09/23 12:33:31;;;;;;;1.40;0.80;;;;;;;;;;20925612;28;20222;-76
2022/09/23 12:43:34;;;;;;;1.10;0.87;;;;;;;;;;20955908;28;20278;-77
2022/09/23 12:53:39;;;;;;;0.93;0.63;;;;;;;;;;20961061;28;20341;-75
2022/09/23 13:14:05;;;;;;;0.90;0.60;;;;;;;;;;20885004;28;20214;-76
2022/09/23 13:24:16;;;;;;;0.70;0.70;;;;;;;;;;20892601;28;20255;-76
2022/09/23 13:34:21;;;;;;;1.50;0.77;;;;;;;;;;20894167;28;20236;-75
2022/09/23 13:44:22;;;;;;;1.07;0.70;;;;;;;;;;20962867;28;21038;-76
2022/09/23 13:54:31;;;;;;;1.37;0.70;;;17.40;99.90;;;;;;20947232;28;20251;-75
2022/09/23 14:04:32;;;;;;;0.83;0.60;;;;;;;;;;20940745;28;20222;-74
2022/09/23 14:14:36;;;;;;;1.03;0.70;;;;;;;;;;20954527;28;20623;-74
2022/09/23 14:24:37;;;;;;;1.10;0.63;;;17.40;99.90;;;;;;20977077;28;20201;-75
2022/09/23 14:34:51;;;;;;;0.70;0.60;;;17.50;99.90;;;;;;20984178;28;20622;-75
2022/09/23 14:44:52;;;;;;;1.30;0.83;;;;;;;;;;20971363;28;20239;-74
2022/09/23 14:54:54;;;;;;;1.60;0.80;;;;;;;;;;20960915;28;20225;-76
2022/09/23 15:05:08;;;;;;;2.50;0.63;;;;;;;;;;20969132;28;20217;-75
2022/09/23 15:15:12;;;;;;;2.07;0.60;;;;;;;;;;20968233;28;20216;-77
2022/09/23 15:25:24;;;;;;;0.70;0.50;;;;;;;;;;20942119;28;20283;-77
2022/09/23 15:35:27;;;;;;;0.70;0.50;;;17.50;99.90;;;;;;20962704;28;20220;-77
2022/09/23 15:45:36;;;;;;;1.40;0.70;;;17.30;99.90;;;;;;20975195;28;20212;-77
2022/09/23 15:55:38;;;;;;;1.00;0.70;;;;;;;;;;20952880;28;20894;-77
2022/09/23 16:05:45;;;;;;;0.80;0.63;;;17.20;99.90;;;;;;20933174;28;20218;-76
2022/09/23 16:15:49;;;;;;;1.80;1.10;;;;;;;;;;20958808;28;20286;-76
2022/09/23 16:25:51;;;;;;;1.77;1.10;;;;;;;;;;20974126;28;20283;-76
2022/09/23 16:35:55;;;;;;;3.23;0.80;;;;;;;;;;20923333;28;20229;-76
2022/09/23 16:46:00;;;;;;;1.47;0.77;;;;;;;;;;20970324;28;20212;-76
2022/09/23 16:56:09;;;;;;;3.60;1.20;;;;;;;;;;21019170;28;20413;-77
2022/09/23 17:06:18;;;;;;;1.00;0.63;;;16.90;99.90;;;;;;20937119;28;20260;-75
2022/09/23 17:16:25;;;;;;;1.83;1.07;;;;;;;;;;20960870;28;20271;-75
2022/09/23 17:26:28;;;;;;;1.60;1.10;;;;;;;;;;20967638;28;20233;-76
2022/09/23 17:36:30;;;;;;;1.23;0.83;;;;;;;;;;20957370;28;20313;-75
2022/09/23 17:46:31;;;;;;;4.47;1.07;;;;;;;;;;20979071;28;20290;-75
2022/09/23 17:56:33;;;;;;;4.47;1.20;;;;;;;;;;20979114;28;20663;-75
2022/09/23 18:06:36;;;;;;;1.87;0.90;;;;;;;;;;20999415;22;20623;-75
2022/09/23 18:16:40;;;;;;;2.50;1.70;;;;;;;;;;20965057;28;20287;-74
2022/09/23 18:26:41;;;;;;;1.97;1.50;;;;;;;;;;20957973;28;20217;-74
2022/09/23 18:36:44;;;;;;;2.00;1.10;;;;;;;;;;20957015;28;20765;-74
2022/09/23 18:46:46;;;;;;;2.43;1.43;;;;;;;;;;20971906;28;20225;-74
2022/09/23 18:56:51;;;;;;;1.37;0.80;;;;;;;;;;20955478;28;20221;-74
2022/09/23 19:06:55;;;;;;;1.30;0.57;;;;;;;;;;20946702;28;20278;-74
2022/09/23 19:16:57;;;;;;;1.90;0.83;;;;;;;;;;20957629;28;20212;-74
2022/09/23 19:27:01;;;;;;;1.93;0.93;;;;;;;;;;20972742;28;20225;-74
2022/09/23 19:37:04;;;;;;;1.00;0.87;;;;;;;;;;20970933;28;20255;-75
2022/09/23 19:47:06;;;;;;;2.03;0.90;;;;;;;;;;20954229;28;20209;-74
2022/09/23 19:57:08;;;;;;;2.50;1.07;;;;;;;;;;20950765;28;20212;-74
2022/09/23 20:07:10;;;;;;;1.93;1.10;;;;;;;;;;20950355;28;20225;-75
2022/09/23 20:17:12;;;;;;;2.97;0.80;;;;;;;;;;20868656;28;20225;-75
2022/09/23 20:27:14;;;;;;;2.53;1.70;;;;;;;;;;20926751;28;20585;-74
2022/09/23 20:37:17;;;;;;;2.73;1.43;;;15.40;99.90;;;;;;20934726;28;20225;-74
2022/09/23 20:47:19;;;;;;;2.90;0.90;;;;;;;;;;20950514;28;20267;-74
2022/09/23 20:57:21;;;;;;;1.40;1.10;;;;;;;;;;20948074;28;20953;-75
2022/09/23 21:07:23;;;;;;;1.40;1.00;;;;;;;;;;20944190;28;20297;-74
2022/09/23 21:17:25;;;;;;;2.27;1.00;;;;;;;;;;20944075;28;20731;-75
2022/09/23 21:27:28;;;;;;;1.87;1.00;;;;;;;;;;20952046;28;20209;-74
2022/09/23 21:37:30;;;;;;;1.80;1.10;;;;;;;;;;20951709;28;20592;-75
2022/09/23 21:47:32;;;;;;;2.80;1.47;;;;;;;;;;20950601;28;20209;-75
2022/09/23 21:57:34;;;;;;;2.67;1.47;;;;;;;;;;20967597;28;20649;-75
2022/09/23 22:07:39;;;;;;;2.47;1.60;;;;;;;;;;20950106;28;20312;-75
2022/09/23 22:17:40;;;;;;;1.30;0.97;;;;;;;;;;20950081;28;20577;-76
2022/09/23 22:32:39;;;;;;;3.43;1.93;;;;;;;;;;20957629;28;20634;-74
2022/09/23 22:38:04;;;;;;;1.90;1.40;;;;;;;;;;20979588;28;20673;-76
2022/09/23 22:48:06;;;;;;;2.50;1.50;;;;;;;;;;20880627;28;20222;-76
2022/09/23 22:58:08;;;;;;;2.40;1.60;;;;;;;;;;20896279;28;20701;-76
2022/09/23 23:08:10;;;;;;;1.80;1.27;;;;;;;;;;20895800;28;20715;-74
2022/09/23 23:18:13;;;;;;;1.67;1.30;;;;;;;;;;20977548;28;20229;-76
2022/09/23 23:28:15;;;;;;;2.03;1.30;;;;;;;;;;20976566;28;20209;-76
2022/09/23 23:38:17;;;;;;;2.40;1.33;;;;;;;;;;20975366;28;20635;-74
2022/09/23 23:48:19;;;;;;;3.60;1.20;;;;;;;;;;20976134;28;20221;-76
2022/09/23 23:58:21;;;;;;;3.40;1.00;;;;;;;;;;20958051;28;20747;-74
